FMSD

Tôlanaro Airport

Tôlanaro, Comoros
METAR FMSD 260300Z 00000KT 9999 FEW020 SCT033 26/25 Q1010
Observed Flight Rules
Feb-26 @ 03:00 UTC (34 minutes ago) Visual Flight Rules
Wind Visibility Clouds
Calm 10,000+ meters
  • Few at 2,000' AGL
  • Scattered at 3,300' AGL
Temperatures Readings
Current 26°C / 79°F
Dewpoint 25°C / 77°F
Humidity 94%
Altimeter 29.82" Hg
Pressure 1010 hPa
Elevation 9
METAR FMSD 260300Z 00000KT 9999 FEW020 SCT033 26/25 Q1010
Observed Flight Rules
Feb-26 @ 03:00 UTC
(34 minutes ago)
VFR
Wind Visibility
Calm 10,000+ meters
Clouds
  • Few at 2,000' AGL
  • Scattered at 3,300' AGL
Temperature Dewpoint
26°C / 79°F 25°C / 77°F
Humidity Altimeter Pressure
94% 29.82" Hg 1010 hPa